Time;durP1;ratioP1;P1;durP2;ratioP2;P2;SDS_P1;SDS_P2;PMS_P1;PMS_P2;Temp;Humidity;BMP_temperature;BMP_pressure;BME280_temperature;BME280_humidity;BME280_pressure;Samples;Min_cycle;Max_cycle;Signal;HPM_P1;HPM_P2
2021/06/07 00:02:32;;;;;;;38.65;33.22;;;;;;;18.90;66.65;102138.69;6094261;28;20505;-52
2021/06/07 00:05:52;;;;;;;37.55;32.60;;;;;;;18.80;66.83;102139.78;6093124;28;20237;-50
2021/06/07 00:09:17;;;;;;;34.00;30.48;;;;;;;19.18;65.88;102133.63;6091978;28;20240;-50
2021/06/07 00:12:38;;;;;;;34.53;30.35;;;;;;;19.12;66.19;102123.22;6090217;28;20236;-52
2021/06/07 00:16:00;;;;;;;34.50;30.70;;;;;;;19.21;65.79;102123.00;6081639;28;21008;-52
2021/06/07 00:19:20;;;;;;;33.88;29.75;;;;;;;19.21;65.51;102130.94;6090296;28;20232;-50
2021/06/07 00:22:41;;;;;;;39.38;31.77;;;;;;;19.23;65.83;102122.94;6089194;28;20283;-52
2021/06/07 00:26:03;;;;;;;36.55;32.22;;;;;;;18.45;68.37;102134.34;6090314;28;20241;-53
2021/06/07 00:29:24;;;;;;;37.30;33.25;;;;;;;18.76;67.23;102136.31;6098854;28;20252;-50
2021/06/07 00:32:45;;;;;;;41.60;34.88;;;;;;;18.51;68.34;102136.00;6092925;28;20232;-50
2021/06/07 00:36:07;;;;;;;40.78;32.35;;;;;;;18.42;68.61;102136.22;6092303;28;20259;-49
2021/06/07 00:39:27;;;;;;;38.72;32.50;;;;;;;18.67;67.86;102140.03;6091581;28;20319;-51
2021/06/07 00:42:49;;;;;;;42.60;35.17;;;;;;;18.50;68.00;102137.75;6078444;28;20228;-52
2021/06/07 00:46:10;;;;;;;44.22;35.50;;;;;;;18.51;67.83;102136.00;6088142;28;20232;-51
2021/06/07 00:49:31;;;;;;;38.88;32.20;;;;;;;18.67;67.51;102126.84;6091935;28;20236;-53
2021/06/07 00:53:02;;;;;;;42.63;33.47;;;;;;;18.46;68.32;102132.59;6087525;28;20263;-52
2021/06/07 00:56:22;;;;;;;40.58;33.35;;;;;;;18.69;67.52;102126.81;6090132;28;20236;-50
2021/06/07 00:59:44;;;;;;;37.88;32.17;;;;;;;18.58;67.72;102126.19;6087652;28;20311;-55
2021/06/07 01:03:06;;;;;;;35.65;31.02;;;;;;;18.71;67.69;102135.56;6095459;28;20240;-48
2021/06/07 01:06:27;;;;;;;39.88;34.65;;;;;;;18.72;67.65;102133.78;6094351;28;20244;-55
2021/06/07 01:09:47;;;;;;;45.60;35.15;;;;;;;18.86;67.23;102131.72;6086337;28;20233;-53
2021/06/07 01:13:08;;;;;;;40.25;33.22;;;;;;;18.97;66.39;102134.13;6096200;28;20335;-47
2021/06/07 01:16:30;;;;;;;43.35;34.78;;;;;;;19.00;66.18;102132.31;6093877;28;20244;-51
2021/06/07 01:19:50;;;;;;;49.63;38.13;;;;;;;19.04;65.98;102133.97;6093726;28;20930;-54
2021/06/07 01:23:13;;;;;;;44.80;32.17;;;;;;;18.81;66.79;102133.63;6091322;28;20224;-52
2021/06/07 01:26:33;;;;;;;45.20;37.28;;;;;;;18.38;68.44;102135.41;6095719;28;20240;-52
2021/06/07 01:29:54;;;;;;;36.25;32.38;;;;;;;18.56;68.02;102136.78;6095993;28;20244;-47
2021/06/07 01:33:18;;;;;;;43.13;35.80;;;;;;;18.57;67.77;102129.72;6096123;28;20236;-50
2021/06/07 01:36:39;;;;;;;40.00;32.63;;;;;;;18.63;67.89;102129.56;6093104;28;20232;-52
2021/06/07 01:40:01;;;;;;;43.20;35.00;;;;;;;18.81;67.27;102133.63;6075990;28;20232;-51
2021/06/07 01:43:22;;;;;;;40.40;36.13;;;;;;;19.08;65.97;102122.41;6105658;28;20619;-53
2021/06/07 01:46:42;;;;;;;41.03;35.45;;;;;;;18.82;66.93;102130.06;6091431;28;20236;-52
2021/06/07 01:50:05;;;;;;;36.03;32.13;;;;;;;18.83;67.20;102131.81;6087707;28;20240;-52
2021/06/07 01:53:27;;;;;;;45.65;33.85;;;;;;;18.79;66.84;102133.63;6093434;28;20667;-50
2021/06/07 01:56:49;;;;;;;38.17;33.63;;;;;;;18.79;67.14;102124.84;6088504;28;20236;-54
2021/06/07 02:00:13;;;;;;;43.15;35.22;;;;;;;19.00;66.28;102121.75;6094234;28;21004;-52
2021/06/07 02:03:34;;;;;;;40.95;34.55;;;;;;;18.41;68.64;102124.75;6087184;28;20322;-52
2021/06/07 02:06:55;;;;;;;41.55;35.60;;;;;;;18.43;68.51;102117.69;6098479;28;20315;-49
2021/06/07 02:10:17;;;;;;;40.75;35.40;;;;;;;18.51;68.52;102120.16;6092930;28;20274;-51
2021/06/07 02:13:40;;;;;;;44.28;35.88;;;;;;;18.62;67.99;102120.81;6082482;28;20546;-50
2021/06/07 02:17:01;;;;;;;40.58;32.38;;;;;;;18.84;67.33;102115.97;6084925;28;20310;-48
2021/06/07 02:20:23;;;;;;;36.45;32.50;;;;;;;19.08;66.13;102111.84;6099173;28;20237;-51
2021/06/07 02:23:44;;;;;;;36.97;32.60;;;;;;;18.61;67.51;102119.09;6094731;28;20237;-54
2021/06/07 02:27:05;;;;;;;38.28;34.17;;;;;;;18.50;68.12;102121.94;6094087;28;20566;-54
2021/06/07 02:30:29;;;;;;;39.65;35.22;;;;;;;17.95;70.14;102119.56;6090981;28;20243;-54
2021/06/07 02:33:50;;;;;;;40.33;33.30;;;;;;;18.15;69.54;102127.94;6089827;28;20237;-51
2021/06/07 02:37:11;;;;;;;40.25;35.15;;;;;;;18.41;68.59;102135.31;6092772;28;20564;-51
2021/06/07 02:40:34;;;;;;;40.72;35.17;;;;;;;17.43;72.37;102131.88;6094006;28;20343;-50
2021/06/07 02:43:54;;;;;;;41.93;35.17;;;;;;;17.89;71.24;102128.44;6096563;28;20315;-54
2021/06/07 02:47:17;;;;;;;39.83;33.65;;;;;;;18.25;69.76;102137.41;6093653;28;20240;-52
2021/06/07 02:50:40;;;;;;;40.10;34.40;;;;;;;18.50;68.57;102134.28;6103287;28;20228;-49
2021/06/07 02:54:01;;;;;;;40.35;35.90;;;;;;;18.42;68.44;102136.22;6097651;28;20236;-52
2021/06/07 02:57:22;;;;;;;43.45;34.47;;;;;;;18.43;68.39;102137.94;6087015;28;20245;-52
2021/06/07 03:00:46;;;;;;;44.50;36.50;;;;;;;18.43;68.47;102132.66;6088345;28;20232;-53
2021/06/07 03:04:08;;;;;;;38.30;33.95;;;;;;;18.52;68.23;102137.75;6094876;28;20546;-51
2021/06/07 03:07:28;;;;;;;40.25;35.15;;;;;;;18.55;68.29;102131.53;6085483;28;20241;-50
2021/06/07 03:10:54;;;;;;;38.38;31.83;;;;;;;18.42;68.52;102133.56;6088639;28;20777;-50
2021/06/07 03:14:15;;;;;;;38.10;34.05;;;;;;;18.74;67.76;102132.84;6091480;28;20315;-51
2021/06/07 03:17:35;;;;;;;39.75;34.17;;;;;;;18.45;68.50;102136.13;6097379;28;20231;-51
2021/06/07 03:20:57;;;;;;;38.10;33.97;;;;;;;18.74;67.61;102132.00;6093928;28;21943;-53
2021/06/07 03:24:17;;;;;;;39.97;33.58;;;;;;;18.52;68.27;102127.19;6096022;28;20240;-52
2021/06/07 03:27:40;;;;;;;40.97;34.20;;;;;;;18.76;67.32;102130.19;6087527;28;20320;-55
2021/06/07 03:31:01;;;;;;;41.38;35.83;;;;;;;18.71;67.44;102132.94;6085408;28;20237;-53
2021/06/07 03:34:21;;;;;;;47.33;38.22;;;;;;;18.80;67.33;102127.47;6089676;28;20251;-50
2021/06/07 03:37:43;;;;;;;44.50;36.67;;;;;;;18.65;68.03;102127.78;6088998;28;20240;-49
2021/06/07 03:41:05;;;;;;;39.88;34.90;;;;;;;18.63;67.84;102127.81;6097904;28;20237;-51
2021/06/07 03:44:25;;;;;;;42.92;35.40;;;;;;;18.48;68.52;102130.78;6097501;28;20232;-54
2021/06/07 03:47:47;;;;;;;43.90;34.00;;;;;;;18.73;67.49;102130.25;6084471;28;20240;-53
2021/06/07 03:51:08;;;;;;;51.88;39.05;;;;;;;17.77;70.92;102126.00;6093747;28;20241;-51
2021/06/07 03:54:30;;;;;;;47.58;39.97;;;;;;;17.45;72.87;102130.97;6092191;28;20240;-54
2021/06/07 03:57:52;;;;;;;46.78;37.88;;;;;;;18.16;70.08;102134.09;6095435;28;20495;-49
2021/06/07 04:01:12;;;;;;;49.38;37.00;;;;;;;18.56;68.84;102122.72;6091657;28;20236;-52
2021/06/07 04:04:33;;;;;;;46.75;39.00;;;;;;;18.25;69.55;102129.50;6096014;28;20236;-51
2021/06/07 04:07:55;;;;;;;50.53;40.67;;;;;;;18.01;70.73;102125.59;6095001;28;20331;-52
2021/06/07 04:11:17;;;;;;;50.97;39.83;;;;;;;17.27;73.41;102131.25;6087678;28;20228;-52
2021/06/07 04:14:37;;;;;;;54.22;40.47;;;;;;;17.86;71.39;102132.00;6087773;28;20555;-50
2021/06/07 04:17:58;;;;;;;49.05;38.22;;;;;;;17.59;72.97;102130.72;6089996;28;20312;-53
2021/06/07 04:21:18;;;;;;;49.75;41.08;;;;;;;18.14;70.71;102136.75;6094128;28;20233;-49
2021/06/07 04:24:38;;;;;;;41.78;35.95;;;;;;;18.14;70.18;102139.38;6093197;28;20236;-53
2021/06/07 04:28:01;;;;;;;45.70;37.33;;;;;;;18.39;69.43;102146.81;6079495;28;20256;-52
2021/06/07 04:31:21;;;;;;;42.90;36.63;;;;;;;18.59;68.65;102131.44;6093050;28;20228;-53
2021/06/07 04:34:42;;;;;;;49.83;41.53;;;;;;;18.26;69.77;102140.91;6091955;28;20220;-53
2021/06/07 04:38:02;;;;;;;53.22;43.22;;;;;;;18.20;70.12;102144.53;6087390;28;20252;-51
2021/06/07 04:41:23;;;;;;;53.08;42.00;;;;;;;17.91;71.12;102142.44;6096682;28;20252;-51
2021/06/07 04:44:44;;;;;;;47.67;38.83;;;;;;;17.96;71.43;102137.13;6096031;28;20300;-51
2021/06/07 04:48:05;;;;;;;43.05;34.60;;;;;;;18.22;70.21;102137.50;6087774;28;20237;-50
2021/06/07 04:51:26;;;;;;;48.33;37.97;;;;;;;18.12;70.31;102135.91;6090047;28;20233;-52
2021/06/07 04:54:46;;;;;;;42.65;38.03;;;;;;;18.48;69.35;102136.94;6100008;28;20618;-51
2021/06/07 04:58:10;;;;;;;42.17;36.03;;;;;;;18.35;69.37;102138.09;6089635;28;20237;-55
2021/06/07 05:01:32;;;;;;;40.83;35.80;;;;;;;18.46;68.72;102132.59;6094156;28;20233;-53
2021/06/07 05:04:52;;;;;;;41.45;35.22;;;;;;;18.44;69.24;102142.31;6090514;28;20248;-53
2021/06/07 05:08:13;;;;;;;47.08;37.00;;;;;;;18.14;70.39;102143.78;6093012;28;20614;-51
2021/06/07 05:11:34;;;;;;;42.50;36.67;;;;;;;18.42;69.30;102137.06;6087049;28;20533;-51
2021/06/07 05:14:54;;;;;;;40.75;35.83;;;;;;;18.54;68.82;102133.28;6090064;28;20427;-53
2021/06/07 05:18:16;;;;;;;38.15;33.95;;;;;;;18.41;69.42;102140.59;6093927;28;20579;-52
2021/06/07 05:21:36;;;;;;;45.40;36.13;;;;;;;18.45;69.16;102138.75;6091348;28;20248;-49
2021/06/07 05:24:57;;;;;;;44.30;36.00;;;;;;;18.33;69.44;102141.66;6098372;28;20275;-53
2021/06/07 05:28:18;;;;;;;41.00;36.65;;;;;;;18.56;68.74;102139.41;6088332;28;87485;-50
2021/06/07 05:31:39;;;;;;;43.83;37.13;;;;;;;18.85;67.42;102137.94;6090831;28;20223;-53
2021/06/07 05:35:01;;;;;;;43.60;35.38;;;;;;;18.91;67.10;102139.56;6092301;28;20236;-54
2021/06/07 05:38:21;;;;;;;40.58;36.17;;;;;;;18.85;67.65;102145.84;6081759;28;20236;-55
2021/06/07 05:41:42;;;;;;;41.25;36.50;;;;;;;18.83;67.15;102142.38;6087367;28;20312;-53
2021/06/07 05:45:05;;;;;;;39.40;33.88;;;;;;;18.99;67.24;102148.16;6098857;28;20239;-52
2021/06/07 05:48:25;;;;;;;46.67;38.20;;;;;;;18.76;67.75;102154.78;6096402;28;20240;-53
2021/06/07 05:51:47;;;;;;;45.35;36.03;;;;;;;18.91;67.65;102158.91;6090122;28;20546;-56
2021/06/07 05:55:08;;;;;;;46.65;39.40;;;;;;;18.65;68.26;102155.03;6098061;28;20606;-50
2021/06/07 05:58:28;;;;;;;43.30;38.65;;;;;;;18.86;67.84;102158.13;6091036;28;20245;-53
2021/06/07 06:01:49;;;;;;;41.03;36.03;;;;;;;18.05;70.43;102161.53;6089124;28;20244;-54
2021/06/07 06:05:10;;;;;;;41.28;36.55;;;;;;;18.52;68.84;102158.84;6080731;28;20228;-54
2021/06/07 06:08:31;;;;;;;39.60;35.30;;;;;;;19.03;67.22;102161.25;6096825;28;20574;-62
2021/06/07 06:11:52;;;;;;;37.53;33.50;;;;;;;19.30;66.03;102158.88;6089438;28;20256;-62
2021/06/07 06:15:14;;;;;;;44.70;37.65;;;;;;;19.01;66.74;102159.56;6085574;28;20362;-63
2021/06/07 06:18:37;;;;;;;44.35;36.38;;;;;;;18.82;67.53;102167.88;6085044;28;20236;-62
2021/06/07 06:22:00;;;;;;;41.70;35.72;;;;;;;18.99;67.55;102164.00;6080820;28;20244;-53
2021/06/07 06:25:23;;;;;;;38.22;33.92;;;;;;;18.92;67.26;102162.41;6081271;28;20228;-53
2021/06/07 06:28:43;;;;;;;40.38;36.00;;;;;;;18.80;68.03;102164.41;6105590;28;20590;-52
2021/06/07 06:32:05;;;;;;;39.30;35.05;;;;;;;18.21;70.49;102170.00;6088181;28;20252;-52
2021/06/07 06:35:26;;;;;;;39.92;34.88;;;;;;;18.65;68.52;102176.16;6077782;28;20220;-51
2021/06/07 06:38:46;;;;;;;38.83;34.65;;;;;;;18.79;67.74;102172.34;6081133;28;20228;-52
2021/06/07 06:42:09;;;;;;;43.30;34.38;;;;;;;18.89;68.05;102166.00;6083527;28;20277;-52
2021/06/07 06:45:31;;;;;;;37.30;33.28;;;;;;;19.40;66.22;102160.38;6086519;28;20327;-54
2021/06/07 06:48:52;;;;;;;38.38;34.28;;;;;;;19.03;66.86;102171.81;6092398;28;20248;-52
2021/06/07 06:52:12;;;;;;;36.63;32.92;;;;;;;19.06;66.97;102170.91;6075603;28;20240;-53
2021/06/07 06:55:33;;;;;;;37.92;33.92;;;;;;;18.77;67.54;102174.16;6076059;28;20463;-50
2021/06/07 06:58:55;;;;;;;37.42;33.55;;;;;;;18.97;67.04;102182.50;6076706;28;20613;-50
2021/06/07 07:02:15;;;;;;;36.58;32.78;;;;;;;19.38;65.90;102185.94;6078360;28;20244;-52
2021/06/07 07:05:36;;;;;;;36.20;32.05;;;;;;;19.54;65.18;102188.22;6080181;28;20240;-53
2021/06/07 07:08:56;;;;;;;34.50;30.65;;;;;;;19.61;65.12;102184.53;6076564;28;20235;-50
2021/06/07 07:12:17;;;;;;;36.72;32.47;;;;;;;19.65;64.56;102187.03;6075585;28;20630;-52
2021/06/07 07:15:40;;;;;;;32.40;29.00;;;;;;;19.89;64.07;102202.34;6074955;28;20235;-51
2021/06/07 07:19:00;;;;;;;35.92;32.30;;;;;;;20.16;63.14;102201.63;6076394;28;20233;-55
2021/06/07 07:22:21;;;;;;;35.03;31.17;;;;;;;20.46;61.84;102199.03;6072605;28;20240;-48
2021/06/07 07:25:43;;;;;;;36.58;32.97;;;;;;;19.70;63.84;102199.28;6081105;28;20240;-52
2021/06/07 07:29:03;;;;;;;41.88;37.67;;;;;;;19.32;65.59;102201.94;6073253;28;20677;-49
2021/06/07 07:32:26;;;;;;;41.00;36.65;;;;;;;19.80;64.47;102196.41;6077189;28;20240;-52
2021/06/07 07:35:46;;;;;;;33.15;29.60;;;;;;;20.16;63.31;102199.00;6073570;28;20236;-50
2021/06/07 07:39:06;;;;;;;36.13;32.47;;;;;;;20.41;62.33;102199.16;6078468;28;20232;-59
2021/06/07 07:42:27;;;;;;;36.53;32.63;;;;;;;20.52;62.28;102200.63;6078168;28;20232;-59
2021/06/07 07:45:47;;;;;;;33.28;29.95;;;;;;;20.89;60.66;102205.72;6074741;28;20319;-59
2021/06/07 07:49:09;;;;;;;36.50;32.78;;;;;;;21.21;60.04;102198.56;6077659;28;20272;-53
2021/06/07 07:52:29;;;;;;;37.55;32.92;;;;;;;20.25;62.37;102196.06;6078837;28;20233;-59
2021/06/07 07:55:52;;;;;;;36.47;32.97;;;;;;;20.57;60.98;102204.00;6079125;28;20719;-58
2021/06/07 07:59:12;;;;;;;31.83;28.77;;;;;;;21.26;59.44;102193.97;6080058;28;20232;-59
2021/06/07 08:02:33;;;;;;;33.58;30.05;;;;;;;21.27;59.17;102195.72;6079164;28;20236;-59
2021/06/07 08:05:55;;;;;;;35.60;31.90;;;;;;;21.27;58.97;102195.72;6075889;28;20323;-60
2021/06/07 08:09:16;;;;;;;43.92;39.33;;;;;;;20.25;62.12;102192.56;6095788;28;20236;-59
2021/06/07 08:12:37;;;;;;;48.22;43.13;;;;;;;21.06;59.81;102196.41;6076593;28;20232;-59
2021/06/07 08:15:57;;;;;;;40.90;36.67;;;;;;;22.54;55.48;102185.16;6083876;28;20336;-60
2021/06/07 08:19:18;;;;;;;42.55;38.45;;;;;;;22.32;57.39;102184.25;6094936;28;20615;-61
2021/06/07 08:22:40;;;;;;;41.40;37.15;;;;;;;22.41;55.12;102181.22;6090846;28;20224;-59
2021/06/07 08:26:00;;;;;;;38.90;35.22;;;;;;;22.92;54.32;102185.47;6088674;28;20615;-60
2021/06/07 08:29:21;;;;;;;35.28;31.92;;;;;;;23.56;52.54;102184.69;6080959;28;20564;-59
2021/06/07 08:32:42;;;;;;;32.75;29.20;;;;;;;23.67;52.57;102181.56;6082393;28;20805;-59
2021/06/07 08:36:03;;;;;;;40.25;36.30;;;;;;;21.79;56.29;102183.41;6089796;28;20224;-57
2021/06/07 08:39:25;;;;;;;45.65;40.97;;;;;;;20.46;60.80;102185.78;6088181;28;20240;-59
2021/06/07 08:42:46;;;;;;;43.15;38.95;;;;;;;21.72;57.94;102191.63;6080924;28;20232;-60
2021/06/07 08:46:06;;;;;;;46.72;42.22;;;;;;;21.74;57.41;102190.66;6080291;28;20248;-60
2021/06/07 08:49:27;;;;;;;50.05;45.22;;;;;;;21.19;58.36;102189.78;6099536;28;20954;-60
2021/06/07 08:52:48;;;;;;;51.45;46.45;;;;;;;21.40;57.89;102186.47;6087377;28;20236;-60
2021/06/07 08:56:10;;;;;;;51.50;46.40;;;;;;;21.94;56.90;102187.31;6084892;28;20237;-59
2021/06/07 08:59:30;;;;;;;46.92;42.42;;;;;;;23.30;53.34;102183.13;6080050;28;20232;-59
2021/06/07 09:02:59;;;;;;;50.58;45.53;;;;;;;21.14;58.81;102186.44;6083073;28;20236;-60
2021/06/07 09:06:24;;;;;;;52.38;46.78;;;;;;;22.21;56.29;102184.59;6088044;28;20232;-59
2021/06/07 09:10:07;;;;;;;46.17;41.60;;;;;;;22.62;54.84;102184.88;6082503;28;20236;-58
2021/06/07 09:13:29;;;;;;;40.00;36.22;;;;;;;23.46;52.37;102177.13;6081433;28;20456;-58
2021/06/07 09:16:50;;;;;;;46.88;42.40;;;;;;;22.66;53.76;102175.84;6081762;28;20305;-58
2021/06/07 09:20:14;;;;;;;45.63;41.45;;;;;;;22.92;53.92;102188.13;6085934;28;20240;-59
2021/06/07 09:23:41;;;;;;;44.13;40.17;;;;;;;23.34;51.97;102190.03;6078627;28;20316;-56
2021/06/07 09:27:08;;;;;;;41.95;38.10;;;;;;;23.96;50.80;102183.00;6080381;28;20740;-58
2021/06/07 09:30:35;;;;;;;42.35;38.45;;;;;;;24.14;50.58;102178.66;6083599;28;20590;-60
2021/06/07 09:33:56;;;;;;;48.30;43.75;;;;;;;22.40;54.17;102187.47;6087076;28;20252;-59
2021/06/07 09:37:17;;;;;;;48.65;44.17;;;;;;;21.55;57.05;102179.81;6081572;28;20264;-61
2021/06/07 09:40:37;;;;;;;44.03;39.92;;;;;;;22.87;53.67;102178.63;6087547;28;20331;-59
2021/06/07 09:43:59;;;;;;;41.58;37.25;;;;;;;23.64;51.38;102181.69;6070705;28;20232;-61
2021/06/07 09:47:23;;;;;;;41.25;37.38;;;;;;;23.52;51.63;102180.41;6083614;28;20546;-59
2021/06/07 09:50:54;;;;;;;40.22;36.80;;;;;;;23.58;51.75;102184.63;6080115;28;20236;-58
2021/06/07 09:54:15;;;;;;;41.15;37.33;;;;;;;23.37;51.03;102178.41;6082286;28;20512;-59
2021/06/07 09:57:48;;;;;;;44.10;40.05;;;;;;;22.84;53.26;102176.97;6084186;28;20759;-59
2021/06/07 10:01:12;;;;;;;46.92;42.80;;;;;;;23.33;52.04;102177.66;6081086;28;20228;-58
2021/06/07 10:04:55;;;;;;;46.00;42.05;;;;;;;22.74;53.38;102183.53;6089824;28;20244;-61
2021/06/07 10:08:17;;;;;;;41.92;38.08;;;;;;;23.00;52.56;102180.72;6083433;28;20327;-58
2021/06/07 10:11:40;;;;;;;46.10;42.10;;;;;;;22.91;53.06;102186.38;6086351;28;20236;-60
2021/06/07 10:15:01;;;;;;;44.45;40.60;;;;;;;22.59;54.00;102179.69;6088288;28;20259;-59
2021/06/07 10:18:23;;;;;;;43.45;39.75;;;;;;;22.88;53.28;102181.22;6081267;28;20513;-59
2021/06/07 10:21:44;;;;;;;39.17;35.65;;;;;;;23.14;53.59;102189.97;6075998;28;20627;-60
2021/06/07 10:25:07;;;;;;;44.35;40.65;;;;;;;23.48;52.52;102181.47;6079418;28;20236;-60
2021/06/07 10:28:30;;;;;;;43.28;39.38;;;;;;;22.34;54.57;102187.72;6075078;28;20629;-61
2021/06/07 10:31:50;;;;;;;45.50;41.53;;;;;;;23.03;52.83;102189.53;6078536;28;20770;-60
2021/06/07 10:35:12;;;;;;;44.30;40.47;;;;;;;22.07;55.45;102182.44;6082217;28;20241;-61
2021/06/07 10:38:35;;;;;;;39.80;36.30;;;;;;;22.94;53.65;102183.63;6082850;28;20761;-60
2021/06/07 10:42:23;;;;;;;38.80;35.58;;;;;;;24.00;50.90;102185.50;6080583;28;20669;-60
2021/06/07 10:45:43;;;;;;;40.13;36.80;;;;;;;24.40;49.40;102181.94;6086278;28;20540;-61
2021/06/07 10:49:25;;;;;;;38.92;35.67;;;;;;;24.35;49.28;102184.81;6084896;28;20247;-61
2021/06/07 10:52:54;;;;;;;34.30;31.25;;;;;;;24.79;48.18;102181.03;6087873;28;20232;-59
2021/06/07 10:56:14;;;;;;;35.60;32.30;;;;;;;24.82;48.07;102188.88;6087219;28;20232;-61
2021/06/07 10:59:47;;;;;;;31.02;28.58;;;;;;;24.63;48.32;102186.22;6079003;28;20224;-61
2021/06/07 11:03:17;;;;;;;32.75;29.85;;;;;;;24.13;49.18;102179.56;6080895;28;20603;-60
2021/06/07 11:06:49;;;;;;;31.98;29.15;;;;;;;23.80;50.70;102181.94;6084066;28;20788;-60
2021/06/07 11:10:26;;;;;;;31.35;28.67;;;;;;;24.30;49.86;102193.94;6082217;28;20232;-60
2021/06/07 11:13:48;;;;;;;30.52;27.73;;;;;;;23.61;50.52;102180.97;6105036;28;20239;-59
2021/06/07 11:17:24;;;;;;;26.35;24.05;;;;;;;24.75;48.51;102184.78;6080820;28;20627;-59
2021/06/07 11:20:45;;;;;;;25.60;23.40;;;;;;;25.59;46.95;102179.81;6086178;28;20244;-59
2021/06/07 11:24:28;;;;;;;25.13;23.00;;;;;;;25.98;45.61;102178.72;6085621;28;20240;-61
2021/06/07 11:27:49;;;;;;;26.17;24.05;;;;;;;25.64;45.86;102177.75;6071991;28;20712;-59
2021/06/07 11:31:50;;;;;;;23.52;21.45;;;;;;;25.42;45.89;102174.47;6079171;28;20820;-58
2021/06/07 11:35:41;;;;;;;25.20;22.90;;;;;;;25.17;46.87;102178.31;6085642;28;20319;-58
2021/06/07 11:39:02;;;;;;;24.55;22.45;;;;;;;25.61;45.64;102177.94;6087322;28;20284;-59
2021/06/07 11:42:26;;;;;;;25.15;22.95;;;;;;;25.20;46.34;102178.16;6082033;28;20233;-59
2021/06/07 11:45:48;;;;;;;23.92;21.83;;;;;;;26.00;44.00;102171.50;6077203;28;20357;-59
2021/06/07 11:49:12;;;;;;;22.80;20.67;;;;;;;26.66;42.89;102172.44;6080363;28;20232;-59
2021/06/07 11:52:51;;;;;;;23.95;21.95;;;;;;;26.46;42.61;102173.47;6078618;28;20237;-60
2021/06/07 11:56:13;;;;;;;23.02;21.13;;;;;;;25.89;43.95;102172.03;6080343;28;20602;-59
2021/06/07 11:59:36;;;;;;;25.00;22.88;;;;;;;25.50;45.33;102166.94;6078915;28;20240;-60
2021/06/07 12:03:04;;;;;;;21.42;19.52;;;;;;;26.38;42.89;102163.22;6074168;28;20475;-60
2021/06/07 12:06:26;;;;;;;21.70;19.90;;;;;;;27.04;40.98;102161.34;6080548;28;20240;-60
2021/06/07 12:09:49;;;;;;;23.02;20.75;;;;;;;27.32;40.65;102159.78;6065334;28;20508;-59
2021/06/07 12:13:16;;;;;;;19.67;18.15;;;;;;;27.28;40.74;102170.66;6076095;28;20240;-59
2021/06/07 12:16:37;;;;;;;18.60;17.02;;;;;;;26.44;42.13;102165.53;6073603;28;20255;-57
2021/06/07 12:20:05;;;;;;;21.33;19.55;;;;;;;26.11;43.24;102158.44;6075552;28;20355;-59
2021/06/07 12:23:28;;;;;;;21.88;20.00;;;;;;;26.42;42.27;102148.75;6076202;28;20232;-59
2021/06/07 12:30:28;;;;;;;21.73;20.02;;;;;;;27.31;40.40;102158.91;6072768;28;20262;-60
2021/06/07 12:33:49;;;;;;;23.52;21.52;;;;;;;27.35;39.05;102143.56;6068690;28;20240;-59
2021/06/07 12:37:25;;;;;;;21.52;19.92;;;;;;;27.71;38.89;102140.50;6076087;28;20606;-59
2021/06/07 12:40:47;;;;;;;22.13;20.33;;;;;;;27.21;39.40;102144.34;6077165;28;20236;-58
2021/06/07 12:44:07;;;;;;;19.55;17.95;;;;;;;26.80;40.62;102153.81;6080000;28;20236;-57
2021/06/07 12:47:27;;;;;;;19.38;17.77;;;;;;;26.87;41.10;102140.94;6081411;28;20240;-59
2021/06/07 12:50:50;;;;;;;22.73;20.85;;;;;;;26.51;41.48;102148.25;6079242;28;20299;-58
2021/06/07 12:54:12;;;;;;;20.83;19.05;;;;;;;26.48;42.24;102147.53;6080403;28;20241;-59
2021/06/07 12:57:33;;;;;;;24.63;22.38;;;;;;;24.99;45.62;102141.91;6077522;28;20233;-59
2021/06/07 13:00:57;;;;;;;24.48;22.42;;;;;;;25.08;46.12;102142.31;6077518;28;20233;-61
2021/06/07 13:04:25;;;;;;;20.20;18.30;;;;;;;26.36;43.74;102137.56;6082017;28;20679;-56
2021/06/07 13:08:06;;;;;;;21.38;19.60;;;;;;;26.49;43.28;102136.78;6081494;28;20531;-60
2021/06/07 13:11:39;;;;;;;24.88;22.58;;;;;;;26.51;42.45;102132.22;6082343;28;20240;-58
2021/06/07 13:15:00;;;;;;;20.88;19.05;;;;;;;26.35;42.94;102139.38;6083892;28;20264;-60
2021/06/07 13:18:20;;;;;;;18.90;17.20;;;;;;;26.78;42.01;102142.34;6080718;28;20236;-59
2021/06/07 13:21:47;;;;;;;22.00;19.95;;;;;;;26.16;42.96;102135.97;6090555;28;20225;-60
2021/06/07 13:25:17;;;;;;;24.92;22.92;;;;;;;26.32;42.78;102140.38;6080618;28;20256;-58
2021/06/07 13:28:39;;;;;;;19.55;17.95;;;;;;;26.23;43.87;102140.03;6081436;28;20228;-59
2021/06/07 13:32:11;;;;;;;25.45;23.13;;;;;;;25.17;45.71;102133.00;6085144;28;20780;-59
2021/06/07 13:35:32;;;;;;;20.13;18.23;;;;;;;25.53;45.67;102137.44;6078439;28;20244;-60
2021/06/07 13:38:58;;;;;;;25.05;22.73;;;;;;;24.68;47.69;102138.94;6082894;28;20240;-61
2021/06/07 13:42:19;;;;;;;22.35;20.17;;;;;;;25.21;47.10;102131.91;6082413;28;20236;-59
2021/06/07 13:45:44;;;;;;;21.30;19.27;;;;;;;25.63;46.52;102138.72;6079464;28;20239;-59
2021/06/07 13:49:15;;;;;;;21.45;19.35;;;;;;;25.25;46.84;102127.34;6083102;28;20232;-59
2021/06/07 13:52:44;;;;;;;20.88;18.88;;;;;;;25.12;47.32;102130.56;6078623;28;21555;-57
2021/06/07 13:56:06;;;;;;;18.27;16.67;;;;;;;25.37;47.08;102126.69;6079890;28;20243;-59
2021/06/07 13:59:27;;;;;;;18.88;17.08;;;;;;;25.17;46.59;102135.69;6078651;28;20926;-59
2021/06/07 14:02:49;;;;;;;20.40;18.50;;;;;;;25.24;47.23;102126.47;6080865;28;20240;-58
2021/06/07 14:06:11;;;;;;;19.30;17.50;;;;;;;25.34;46.52;102127.72;6086154;28;20240;-59
2021/06/07 14:09:31;;;;;;;24.10;21.67;;;;;;;23.98;48.94;102122.59;6089921;28;20244;-57
2021/06/07 14:12:52;;;;;;;25.48;23.23;;;;;;;23.57;50.50;102125.28;6082758;28;20233;-59
2021/06/07 14:16:13;;;;;;;23.17;20.90;;;;;;;24.46;48.66;102123.06;6087144;28;20240;-58
2021/06/07 14:19:35;;;;;;;23.33;21.08;;;;;;;25.00;46.88;102128.50;6081623;28;20240;-53
2021/06/07 14:26:35;;;;;;;23.23;21.13;;;;;;;24.79;47.74;102117.09;6087859;28;20236;-53
2021/06/07 14:29:55;;;;;;;23.02;20.65;;;;;;;25.04;47.13;102119.41;6087632;28;20323;-53
2021/06/07 14:33:16;;;;;;;23.05;20.90;;;;;;;25.24;46.28;102121.16;6084151;28;20248;-53
2021/06/07 14:36:38;;;;;;;25.35;23.08;;;;;;;25.37;45.26;102116.03;6082650;28;20232;-54
2021/06/07 14:39:58;;;;;;;21.65;19.35;;;;;;;25.33;45.86;102114.47;6087024;28;20236;-55
2021/06/07 14:43:20;;;;;;;20.55;18.63;;;;;;;25.37;45.84;102112.50;6089029;28;20229;-55
2021/06/07 14:46:41;;;;;;;21.42;19.67;;;;;;;25.69;45.52;102111.72;6093844;28;20268;-53
2021/06/07 14:50:01;;;;;;;20.75;18.80;;;;;;;25.48;45.30;102102.16;6085999;28;20237;-53
2021/06/07 14:53:24;;;;;;;26.77;24.35;;;;;;;25.33;46.53;102104.66;6091071;28;20894;-51
2021/06/07 14:56:45;;;;;;;27.15;24.70;;;;;;;25.64;45.85;102095.06;6091207;28;20496;-55
2021/06/07 15:00:07;;;;;;;28.85;26.25;;;;;;;24.81;48.60;102098.38;6094149;28;20351;-52
2021/06/07 15:03:28;;;;;;;30.83;27.92;;;;;;;25.23;47.59;102091.91;6084268;28;20603;-52
2021/06/07 15:06:48;;;;;;;31.52;28.50;;;;;;;25.29;47.43;102100.44;6089946;28;20316;-54
2021/06/07 15:10:11;;;;;;;28.80;25.83;;;;;;;25.37;47.86;102096.53;6088911;28;20236;-52
2021/06/07 15:13:31;;;;;;;30.00;27.33;;;;;;;25.95;46.48;102096.16;6082958;28;20233;-53
2021/06/07 15:16:52;;;;;;;27.67;25.25;;;;;;;25.69;47.20;102101.03;6090591;28;20236;-50
2021/06/07 15:20:14;;;;;;;31.55;28.70;;;;;;;24.41;50.21;102098.47;6085694;28;20240;-52
2021/06/07 15:23:34;;;;;;;28.15;25.65;;;;;;;25.14;49.40;102093.19;6079711;28;20320;-53
2021/06/07 15:26:56;;;;;;;28.40;25.70;;;;;;;25.55;48.79;102090.22;6051831;28;20244;-49
2021/06/07 15:30:17;;;;;;;29.90;26.83;;;;;;;24.40;51.45;102096.75;6083164;28;20239;-54